Avon, Colorado
Current Conditions -  °F | °C
As of 1:50 PM on Wednesday 26 Nov 2014 (Local Time) from KEGE Reporting Station
Few Clouds Few Clouds  
Wind Chill:   Ceiling: Unl
Heat Index:   Visibility: 10mi
Dew Point: -2°   Wind: 14mph
Humidity: 50%   Direction: 260°W
Pressure: 30.34"   Gusts: NA
Location:  39.63°N, 106.52°W
Report Text: KEGE 262050Z 26012KT 10SM FEW040 08/M02 A3034
Loading
Personal Weather Stations






























Interactive Weather Map New forecast layout! Learn more

10-Day Weather Forecast

Advertisements
Track Severe Weather on mobile